createdAt,value
2018-05-25T00:01:37.856Z,96.80
2018-05-25T00:04:10.404Z,97.00
2018-05-25T00:06:38.712Z,97.00
2018-05-25T00:09:09.514Z,97.10
2018-05-25T00:11:39.043Z,97.10
2018-05-25T00:14:10.647Z,97.40
2018-05-25T00:16:40.369Z,97.50
2018-05-25T00:19:18.723Z,97.40
2018-05-25T00:21:50.639Z,97.60
2018-05-25T00:24:26.883Z,97.60
2018-05-25T00:26:58.582Z,97.60
2018-05-25T00:29:39.918Z,98.10
2018-05-25T00:32:15.615Z,98.00
2018-05-25T00:34:52.668Z,98.00
2018-05-25T00:37:24.895Z,97.90
2018-05-25T00:39:55.032Z,97.60
2018-05-25T00:42:27.462Z,97.50
2018-05-25T00:45:08.355Z,97.50
2018-05-25T00:47:37.338Z,98.20
2018-05-25T00:50:05.688Z,98.20
2018-05-25T00:52:37.607Z,98.20
2018-05-25T00:55:27.871Z,98.10
2018-05-25T00:57:57.180Z,98.10
2018-05-25T01:00:28.715Z,98.60
2018-05-25T01:02:56.987Z,98.90
2018-05-25T01:05:27.276Z,98.90
2018-05-25T01:07:56.498Z,98.80
2018-05-25T01:10:24.780Z,98.80
2018-05-25T01:12:53.076Z,98.70
2018-05-25T01:15:21.338Z,99.10
2018-05-25T01:17:49.607Z,99.20
2018-05-25T01:20:17.925Z,99.40
2018-05-25T01:22:47.994Z,99.50
2018-05-25T01:25:23.977Z,99.50
2018-05-25T01:27:53.270Z,99.60
2018-05-25T01:30:35.893Z,99.70
2018-05-25T01:33:08.159Z,99.60
2018-05-25T01:35:40.436Z,99.50
2018-05-25T01:38:10.386Z,99.80
2018-05-25T01:40:43.750Z,99.90
2018-05-25T01:43:18.541Z,99.90
2018-05-25T01:46:06.593Z,99.90
2018-05-25T01:48:35.395Z,99.90
2018-05-25T01:51:04.690Z,99.90
2018-05-25T01:53:50.416Z,99.90
2018-05-25T01:56:20.491Z,99.90
2018-05-25T01:58:54.031Z,99.90
2018-05-25T02:01:30.157Z,99.90
2018-05-25T02:04:05.189Z,99.90
2018-05-25T02:06:37.313Z,99.90
2018-05-25T02:09:09.014Z,99.90
2018-05-25T02:11:47.675Z,99.90
2018-05-25T02:14:16.975Z,99.90
2018-05-25T02:16:47.041Z,99.90
2018-05-25T02:19:25.678Z,99.90
2018-05-25T02:21:53.932Z,99.90
2018-05-25T02:24:24.269Z,99.90
2018-05-25T02:27:03.934Z,99.90
2018-05-25T02:29:33.196Z,99.90
2018-05-25T02:32:14.854Z,99.90
2018-05-25T02:34:49.790Z,99.90
2018-05-25T02:37:19.074Z,99.90
2018-05-25T02:39:54.550Z,99.90
2018-05-25T02:42:29.203Z,99.90
2018-05-25T02:45:10.107Z,99.90
2018-05-25T02:47:45.042Z,99.90
2018-05-25T02:50:14.114Z,99.90
2018-05-25T02:52:45.966Z,99.90
2018-05-25T02:55:15.279Z,99.90
2018-05-25T02:57:50.494Z,99.90
2018-05-25T03:00:19.304Z,99.90
2018-05-25T03:02:53.086Z,99.90
2018-05-25T03:05:32.854Z,99.90
2018-05-25T03:08:01.249Z,99.90
2018-05-25T03:10:35.338Z,99.90
2018-05-25T03:13:09.509Z,99.90
2018-05-25T03:15:39.831Z,99.90
2018-05-25T03:18:15.099Z,99.90
2018-05-25T03:20:49.253Z,99.90
2018-05-25T03:23:17.484Z,99.90
2018-05-25T03:26:00.213Z,99.90
2018-05-25T03:28:36.090Z,99.90
2018-05-25T03:31:14.914Z,99.90
2018-05-25T03:33:43.178Z,99.90
2018-05-25T03:36:17.366Z,99.90
2018-05-25T03:38:51.115Z,99.90
2018-05-25T03:41:20.044Z,99.90
2018-05-25T03:44:08.091Z,99.90
2018-05-25T03:46:56.161Z,99.90
2018-05-25T03:49:29.647Z,99.90
2018-05-25T03:51:57.955Z,99.90
2018-05-25T03:54:31.254Z,99.90
2018-05-25T03:56:59.520Z,99.90
2018-05-25T03:59:46.512Z,99.90
2018-05-25T04:02:14.911Z,99.90
2018-05-25T04:04:43.230Z,99.90
2018-05-25T04:07:12.366Z,99.90
2018-05-25T04:09:45.500Z,99.90
2018-05-25T04:12:18.432Z,99.90
2018-05-25T04:14:59.204Z,99.90
2018-05-25T04:17:31.276Z,99.90
2018-05-25T04:20:04.106Z,99.90
2018-05-25T04:22:43.882Z,99.90
2018-05-25T04:25:13.127Z,99.90
2018-05-25T04:27:53.440Z,99.90
2018-05-25T04:30:29.250Z,99.90
2018-05-25T04:32:57.489Z,99.90
2018-05-25T04:35:25.772Z,99.90
2018-05-25T04:37:56.032Z,99.90
2018-05-25T04:40:24.274Z,99.90
2018-05-25T04:42:57.389Z,99.90
2018-05-25T04:45:36.859Z,99.90
2018-05-25T04:48:11.928Z,99.90
2018-05-25T04:50:40.368Z,99.90
2018-05-25T04:53:16.629Z,99.90
2018-05-25T04:55:47.631Z,99.90
2018-05-25T04:58:29.773Z,99.90
2018-05-25T05:01:11.160Z,98.90
2018-05-25T05:03:40.229Z,98.80
2018-05-25T05:06:08.559Z,98.80
2018-05-25T05:08:38.825Z,97.20
2018-05-25T05:11:07.106Z,95.80
2018-05-25T05:13:35.382Z,96.60
2018-05-25T05:16:17.107Z,95.70
2018-05-25T05:18:52.461Z,94.00
2018-05-25T05:21:32.437Z,94.80
2018-05-25T05:24:00.717Z,93.30
2018-05-25T05:26:32.900Z,94.60
2018-05-25T05:29:11.493Z,93.30
2018-05-25T05:32:05.049Z,83.70
2018-05-25T05:34:36.764Z,70.90
2018-05-25T05:37:18.180Z,55.80
2018-05-25T05:39:47.508Z,55.60
2018-05-25T05:42:16.831Z,52.10
2018-05-25T05:44:48.847Z,50.30
2018-05-25T05:47:18.197Z,49.20
2018-05-25T05:49:48.731Z,46.80
2018-05-25T05:52:22.731Z,44.10
2018-05-25T05:54:57.534Z,43.70
2018-05-25T05:57:26.764Z,42.90
2018-05-25T05:59:58.270Z,41.80
2018-05-25T06:02:28.548Z,41.20
2018-05-25T06:05:03.450Z,40.90
2018-05-25T06:07:35.862Z,40.60
2018-05-25T06:10:11.131Z,43.10
2018-05-25T06:12:39.482Z,43.10
2018-05-25T06:15:09.587Z,40.70
2018-05-25T06:17:37.850Z,40.60
2018-05-25T06:20:07.096Z,41.40
2018-05-25T06:22:35.420Z,40.50
2018-05-25T06:25:03.712Z,42.80
2018-05-25T06:27:31.992Z,43.90
2018-05-25T06:30:02.003Z,47.60
2018-05-25T06:32:36.110Z,47.00
2018-05-25T06:35:05.422Z,44.80
2018-05-25T06:37:33.882Z,43.80
2018-05-25T06:40:02.264Z,41.60
2018-05-25T06:42:30.536Z,40.10
2018-05-25T06:45:02.318Z,40.70
2018-05-25T06:47:34.996Z,41.30
2018-05-25T06:50:03.470Z,41.50
2018-05-25T06:52:31.863Z,41.10
2018-05-25T06:55:00.975Z,40.60
2018-05-25T06:57:30.047Z,39.70
2018-05-25T06:59:58.326Z,39.60
2018-05-25T07:02:26.600Z,39.50
2018-05-25T07:04:54.866Z,38.40
2018-05-25T07:07:23.143Z,38.30
2018-05-25T07:09:51.457Z,38.60
2018-05-25T07:12:22.521Z,38.50
2018-05-25T07:14:59.815Z,38.50
2018-05-25T07:17:34.951Z,40.60
2018-05-25T07:20:03.367Z,40.30
2018-05-25T07:22:32.671Z,41.10
2018-05-25T07:25:00.944Z,41.60
2018-05-25T07:27:29.240Z,42.70
2018-05-25T07:30:09.834Z,40.00
2018-05-25T07:32:49.663Z,40.00
2018-05-25T07:35:18.724Z,39.40
2018-05-25T07:37:51.564Z,39.50
2018-05-25T07:40:20.038Z,38.00
2018-05-25T07:42:53.211Z,37.30
2018-05-25T07:45:28.481Z,38.00
2018-05-25T07:47:59.955Z,37.90
2018-05-25T07:50:30.011Z,37.80
2018-05-25T07:53:15.104Z,38.00
2018-05-25T07:55:46.112Z,38.50
2018-05-25T07:58:16.801Z,38.40
2018-05-25T08:00:52.545Z,39.30
2018-05-25T08:03:24.255Z,37.80
2018-05-25T08:06:13.165Z,37.10
2018-05-25T08:08:45.926Z,37.00
2018-05-25T08:11:16.060Z,37.20
2018-05-25T08:13:59.679Z,37.20
2018-05-25T08:16:33.122Z,36.80
2018-05-25T08:19:08.706Z,37.30
2018-05-25T08:21:44.001Z,36.30
2018-05-25T08:24:16.114Z,35.50
2018-05-25T08:26:58.519Z,37.50
2018-05-25T08:29:26.906Z,39.80
2018-05-25T08:32:04.155Z,40.90
2018-05-25T08:34:39.548Z,40.90
2018-05-25T08:37:11.974Z,42.00
2018-05-25T08:39:51.287Z,42.00
2018-05-25T08:42:21.269Z,44.60
2018-05-25T08:44:55.488Z,43.20
2018-05-25T08:47:24.530Z,40.60
2018-05-25T08:49:59.766Z,40.50
2018-05-25T08:52:36.741Z,41.90
2018-05-25T08:55:07.505Z,41.60
2018-05-25T08:57:46.595Z,44.10
2018-05-25T09:00:28.103Z,42.90
2018-05-25T09:03:05.234Z,40.70
2018-05-25T09:05:45.407Z,41.40
2018-05-25T09:08:14.462Z,41.30
2018-05-25T09:10:53.064Z,37.50
2018-05-25T09:13:22.424Z,36.90
2018-05-25T09:16:00.909Z,38.60
2018-05-25T09:18:31.289Z,36.50
2018-05-25T09:21:12.559Z,35.00
2018-05-25T09:23:44.715Z,35.10
2018-05-25T09:26:24.247Z,34.00
2018-05-25T09:28:55.976Z,33.60
2018-05-25T09:31:25.797Z,32.50
2018-05-25T09:34:00.148Z,32.40
2018-05-25T09:36:33.202Z,37.90
2018-05-25T09:39:04.353Z,36.20
2018-05-25T09:41:35.422Z,36.50
2018-05-25T09:44:16.907Z,36.40
2018-05-25T09:46:50.975Z,37.30
2018-05-25T09:49:30.785Z,35.40
2018-05-25T09:52:04.394Z,37.90
2018-05-25T09:54:35.967Z,36.40
2018-05-25T09:57:08.863Z,36.70
2018-05-25T09:59:52.083Z,37.40
2018-05-25T10:02:30.188Z,38.90
2018-05-25T10:05:02.284Z,37.00
2018-05-25T10:07:32.578Z,35.10
2018-05-25T10:10:03.739Z,36.70
2018-05-25T10:12:32.811Z,36.80
2018-05-25T10:15:11.429Z,36.70
2018-05-25T10:17:39.687Z,35.80
2018-05-25T10:20:07.982Z,33.50
2018-05-25T10:22:37.338Z,35.80
2018-05-25T10:25:11.349Z,34.10
2018-05-25T10:27:40.612Z,31.90
2018-05-25T10:30:12.950Z,32.30
2018-05-25T10:32:43.229Z,35.90
2018-05-25T10:35:22.580Z,33.10
2018-05-25T10:37:52.003Z,33.10
2018-05-25T10:40:43.748Z,34.40
2018-05-25T10:43:14.120Z,35.80
2018-05-25T10:45:43.201Z,36.60
2018-05-25T10:48:11.543Z,36.60
2018-05-25T10:50:41.803Z,38.60
2018-05-25T10:53:12.819Z,34.10
2018-05-25T10:55:42.216Z,34.00
2018-05-25T10:58:15.495Z,32.20
2018-05-25T11:00:52.263Z,30.00
2018-05-25T11:03:25.241Z,28.30
2018-05-25T11:06:01.354Z,27.70
2018-05-25T11:08:30.895Z,28.50
2018-05-25T11:14:04.700Z,34.50
2018-05-25T11:16:44.087Z,34.50
2018-05-25T11:19:13.411Z,34.50
2018-05-25T11:21:47.124Z,33.70
2018-05-25T11:24:18.852Z,33.10
2018-05-25T11:27:05.382Z,33.50
2018-05-25T11:30:03.068Z,31.00
2018-05-25T11:32:43.100Z,32.00
2018-05-25T11:35:12.414Z,31.90
2018-05-25T11:37:55.059Z,30.60
2018-05-25T11:40:25.384Z,30.70
2018-05-25T11:42:55.671Z,30.10
2018-05-25T11:45:33.743Z,30.80
2018-05-25T11:48:04.085Z,29.50
2018-05-25T11:50:34.350Z,29.70
2018-05-25T11:53:08.374Z,28.70
2018-05-25T11:55:51.974Z,27.70
2018-05-25T11:58:21.298Z,26.90
2018-05-25T12:00:56.389Z,27.10
2018-05-25T12:03:25.872Z,25.70
2018-05-25T12:05:59.071Z,25.90
2018-05-25T12:08:40.096Z,23.60
2018-05-25T12:11:22.926Z,22.90
2018-05-25T12:13:52.221Z,22.80
2018-05-25T12:16:22.596Z,21.00
2018-05-25T12:18:54.963Z,21.10
2018-05-25T12:21:26.678Z,18.80
2018-05-25T12:24:02.357Z,21.80
2018-05-25T12:26:52.224Z,22.70
2018-05-25T12:29:22.527Z,21.10
2018-05-25T12:31:51.827Z,20.10
2018-05-25T12:34:20.874Z,20.30
2018-05-25T12:36:49.190Z,20.20
2018-05-25T12:39:18.266Z,19.30
2018-05-25T12:41:49.133Z,19.40
2018-05-25T12:44:19.250Z,20.60
2018-05-25T12:46:48.313Z,19.70
2018-05-25T12:49:16.591Z,19.70
2018-05-25T12:51:46.943Z,18.30
2018-05-25T12:54:18.782Z,19.30
2018-05-25T12:56:52.905Z,20.00
2018-05-25T12:59:34.829Z,18.60
2018-05-25T13:02:05.252Z,18.50
2018-05-25T13:04:35.538Z,19.40
2018-05-25T13:07:08.336Z,17.70
2018-05-25T13:09:41.919Z,18.60
2018-05-25T13:12:13.811Z,18.60
2018-05-25T13:14:44.912Z,16.70
2018-05-25T13:17:13.205Z,16.70
2018-05-25T13:19:42.515Z,16.90
2018-05-25T13:22:12.698Z,16.50
2018-05-25T13:24:44.203Z,16.50
2018-05-25T13:27:13.246Z,18.10
2018-05-25T13:29:43.592Z,18.00
2018-05-25T13:32:11.879Z,16.80
2018-05-25T13:34:40.165Z,17.40
2018-05-25T13:37:16.192Z,21.20
2018-05-25T13:39:50.298Z,21.10
2018-05-25T13:42:20.552Z,21.90
2018-05-25T13:44:48.800Z,21.70
2018-05-25T13:47:22.985Z,22.10
2018-05-25T13:49:51.290Z,22.10
2018-05-25T13:52:24.317Z,19.80
2018-05-25T13:54:52.550Z,19.70
2018-05-25T13:57:20.828Z,19.10
2018-05-25T13:59:49.184Z,18.80
2018-05-25T14:02:17.493Z,19.60
2018-05-25T14:04:47.857Z,20.60
2018-05-25T14:07:24.500Z,18.80
2018-05-25T14:09:58.467Z,20.40
2018-05-25T14:12:51.063Z,20.60
2018-05-25T14:15:30.345Z,19.60
2018-05-25T14:18:11.043Z,20.00
2018-05-25T14:20:40.365Z,20.70
2018-05-25T14:23:19.822Z,21.30
2018-05-25T14:25:50.831Z,21.80
2018-05-25T14:28:20.237Z,21.80
2018-05-25T14:31:06.584Z,21.20
2018-05-25T14:33:40.545Z,21.10
2018-05-25T14:36:08.827Z,21.00
2018-05-25T14:41:36.842Z,18.10
2018-05-25T14:44:10.635Z,18.80
2018-05-25T14:47:00.683Z,18.80
2018-05-25T14:49:49.555Z,19.00
2018-05-25T14:52:21.301Z,20.20
2018-05-25T14:58:01.547Z,20.50
2018-05-25T15:00:29.856Z,20.40
2018-05-25T15:02:58.215Z,21.10
2018-05-25T15:05:39.918Z,21.00
2018-05-25T15:08:10.185Z,21.40
2018-05-25T15:10:51.515Z,21.20
2018-05-25T15:13:27.356Z,21.10
2018-05-25T15:16:17.611Z,21.90
2018-05-25T15:18:46.923Z,21.30
2018-05-25T15:21:17.285Z,20.70
2018-05-25T15:23:48.382Z,20.10
2018-05-25T15:26:31.694Z,20.10
2018-05-25T15:29:00.004Z,20.50
2018-05-25T15:31:38.139Z,18.20
2018-05-25T15:34:18.135Z,18.20
2018-05-25T15:36:49.178Z,17.40
2018-05-25T15:39:20.731Z,17.40
2018-05-25T15:41:50.033Z,17.50
2018-05-25T15:44:23.859Z,17.60
2018-05-25T15:47:09.367Z,17.30
2018-05-25T15:49:39.648Z,18.90
2018-05-25T15:52:32.547Z,19.50
2018-05-25T15:55:09.068Z,18.10
2018-05-25T15:57:39.356Z,17.80
2018-05-25T16:00:10.863Z,17.20
2018-05-25T16:02:44.523Z,18.40
2018-05-25T16:05:14.790Z,18.60
2018-05-25T16:07:49.291Z,19.00
2018-05-25T16:10:17.573Z,18.90
2018-05-25T16:12:49.519Z,19.00
2018-05-25T16:15:24.907Z,17.90
2018-05-25T16:18:03.753Z,16.70
2018-05-25T16:20:43.461Z,16.70
2018-05-25T16:23:30.143Z,17.90
2018-05-25T16:26:06.959Z,17.90
2018-05-25T16:28:44.570Z,16.80
2018-05-25T16:31:13.847Z,16.80
2018-05-25T16:33:43.999Z,18.40
2018-05-25T16:36:20.475Z,18.40
2018-05-25T16:38:52.176Z,19.90
2018-05-25T16:41:39.103Z,19.40
2018-05-25T16:44:26.032Z,19.90
2018-05-25T16:47:06.051Z,19.90
2018-05-25T16:49:45.739Z,18.90
2018-05-25T16:52:33.068Z,18.40
2018-05-25T16:55:08.916Z,18.70
2018-05-25T16:57:57.108Z,18.50
2018-05-25T17:00:43.159Z,17.90
2018-05-25T17:03:23.372Z,18.50
2018-05-25T17:06:02.736Z,19.20
2018-05-25T17:08:44.664Z,20.80
2018-05-25T17:11:19.623Z,21.20
2018-05-25T17:14:07.058Z,20.50
2018-05-25T17:16:36.340Z,20.40
2018-05-25T17:19:14.847Z,20.30
2018-05-25T17:21:50.575Z,20.70
2018-05-25T17:24:26.499Z,21.70
2018-05-25T17:26:55.796Z,21.60
2018-05-25T17:29:25.886Z,21.60
2018-05-25T17:31:55.219Z,21.50
2018-05-25T17:34:36.324Z,23.00
2018-05-25T17:37:10.496Z,23.00
2018-05-25T17:39:55.707Z,23.00
2018-05-25T17:42:24.983Z,24.80
2018-05-25T17:44:54.152Z,26.10
2018-05-25T17:47:40.865Z,26.00
2018-05-25T17:50:10.155Z,26.50
2018-05-25T17:52:46.124Z,27.30
2018-05-25T17:55:25.551Z,28.20
2018-05-25T17:58:01.600Z,28.40
2018-05-25T18:00:34.500Z,29.20
2018-05-25T18:03:02.822Z,30.60
2018-05-25T18:05:32.283Z,34.10
2018-05-25T18:08:00.533Z,34.00
2018-05-25T18:10:28.846Z,35.30
2018-05-25T18:12:57.119Z,38.60
2018-05-25T18:15:25.370Z,40.80
2018-05-25T18:17:55.636Z,43.40
2018-05-25T18:20:23.986Z,44.00
2018-05-25T18:22:56.160Z,45.80
2018-05-25T18:25:24.415Z,46.50
2018-05-25T18:27:54.818Z,46.70
2018-05-25T18:30:26.674Z,46.90
2018-05-25T18:32:58.158Z,46.90
2018-05-25T18:35:43.829Z,47.40
2018-05-25T18:38:13.061Z,48.40
2018-05-25T18:40:54.162Z,49.80
2018-05-25T18:43:25.164Z,50.00
2018-05-25T18:45:59.191Z,50.00
2018-05-25T18:48:43.431Z,50.60
2018-05-25T18:51:12.830Z,50.50
2018-05-25T18:53:42.136Z,51.10
2018-05-25T18:56:14.357Z,51.30
2018-05-25T18:58:43.381Z,52.60
2018-05-25T19:01:22.765Z,52.60
2018-05-25T19:04:03.268Z,53.10
2018-05-25T19:06:31.726Z,53.80
2018-05-25T19:09:04.228Z,54.10
2018-05-25T19:11:44.492Z,55.00
2018-05-25T19:14:18.291Z,55.50
2018-05-25T19:16:47.249Z,56.10
2018-05-25T19:19:16.587Z,56.40
2018-05-25T19:22:07.012Z,56.90
2018-05-25T19:24:45.369Z,57.10
2018-05-25T19:27:25.163Z,57.10
2018-05-25T19:30:06.502Z,57.80
2018-05-25T19:32:35.638Z,57.50
2018-05-25T19:35:09.634Z,57.90
2018-05-25T19:37:46.319Z,58.10
2018-05-25T19:40:15.662Z,58.00
2018-05-25T19:42:45.636Z,59.30
2018-05-25T19:45:19.172Z,59.90
2018-05-25T19:47:53.617Z,59.80
2018-05-25T19:50:35.687Z,60.80
2018-05-25T19:53:05.235Z,60.90
2018-05-25T19:55:37.148Z,61.40
2018-05-25T19:58:05.475Z,61.60
2018-05-25T20:00:39.454Z,62.40
2018-05-25T20:03:09.524Z,62.90
2018-05-25T20:05:49.784Z,62.90
2018-05-25T20:08:18.074Z,62.90
2018-05-25T20:11:11.533Z,63.30
2018-05-25T20:13:40.828Z,63.20
2018-05-25T20:16:19.759Z,64.90
2018-05-25T20:18:58.453Z,64.00
2018-05-25T20:21:28.809Z,64.90
2018-05-25T20:23:59.035Z,65.90
2018-05-25T20:26:32.765Z,65.50
2018-05-25T20:29:01.023Z,66.20
2018-05-25T20:35:05.787Z,68.30
2018-05-25T20:37:36.031Z,68.70
2018-05-25T20:40:06.122Z,71.40
2018-05-25T20:42:40.769Z,71.50
2018-05-25T20:45:21.775Z,72.60
2018-05-25T20:48:09.972Z,72.60
2018-05-25T20:50:39.312Z,73.30
2018-05-25T20:53:13.231Z,73.40
2018-05-25T20:55:43.613Z,73.10
2018-05-25T20:58:15.712Z,73.10
2018-05-25T21:00:45.371Z,71.60
2018-05-25T21:03:13.816Z,72.30
2018-05-25T21:05:42.265Z,71.40
2018-05-25T21:08:14.837Z,73.90
2018-05-25T21:10:48.185Z,73.30
2018-05-25T21:13:17.522Z,73.40
2018-05-25T21:15:48.807Z,75.10
2018-05-25T21:18:21.188Z,75.00
2018-05-25T21:20:50.500Z,75.60
2018-05-25T21:23:20.987Z,76.70
2018-05-25T21:25:56.395Z,77.10
2018-05-25T21:28:27.295Z,77.20
2018-05-25T21:31:02.581Z,77.10
2018-05-25T21:33:30.828Z,77.00
2018-05-25T21:36:01.417Z,77.60
2018-05-25T21:38:35.353Z,77.60
2018-05-25T21:41:04.607Z,78.40
2018-05-25T21:43:38.300Z,78.30
2018-05-25T21:46:12.314Z,79.40
2018-05-25T21:48:47.698Z,79.20
2018-05-25T21:51:33.598Z,79.80
2018-05-25T21:57:03.593Z,81.80
2018-05-25T21:59:39.847Z,82.40
2018-05-25T22:02:08.160Z,82.30
2018-05-25T22:04:44.343Z,82.90
2018-05-25T22:07:31.642Z,82.80
2018-05-25T22:10:03.980Z,82.90
2018-05-25T22:12:39.602Z,82.40
2018-05-25T22:15:20.626Z,82.90
2018-05-25T22:18:02.460Z,82.70
2018-05-25T22:20:35.122Z,82.60
2018-05-25T22:23:05.284Z,82.70
2018-05-25T22:28:41.025Z,85.40
2018-05-25T22:31:11.795Z,86.20
2018-05-25T22:37:15.804Z,85.80
2018-05-25T22:39:56.782Z,85.40
2018-05-25T22:42:45.813Z,85.30
2018-05-25T22:45:36.507Z,86.50
2018-05-25T22:48:23.530Z,86.50
2018-05-25T22:51:13.016Z,86.60
2018-05-25T22:53:52.076Z,87.30
2018-05-25T22:56:25.085Z,88.70
2018-05-25T22:59:01.768Z,89.50
2018-05-25T23:01:42.809Z,90.20
2018-05-25T23:04:13.120Z,90.20
2018-05-25T23:06:42.403Z,90.60
2018-05-25T23:09:24.706Z,91.00
2018-05-25T23:12:12.029Z,90.90
2018-05-25T23:14:47.643Z,91.10
2018-05-25T23:17:21.226Z,91.40
2018-05-25T23:19:50.800Z,91.70
2018-05-25T23:22:37.767Z,92.70
2018-05-25T23:25:07.139Z,93.00
2018-05-25T23:27:36.811Z,92.80
2018-05-25T23:30:06.173Z,92.80
2018-05-25T23:32:37.108Z,93.10
2018-05-25T23:35:07.409Z,93.40
2018-05-25T23:37:35.709Z,93.60
2018-05-25T23:40:08.001Z,93.50
2018-05-25T23:42:38.146Z,93.60
2018-05-25T23:45:16.193Z,93.50
2018-05-25T23:47:48.226Z,94.20
2018-05-25T23:50:28.628Z,94.60
2018-05-25T23:52:57.936Z,94.60
2018-05-25T23:55:28.357Z,95.00
2018-05-25T23:58:09.003Z,94.70
